Time;durP1;ratioP1;P1;durP2;ratioP2;P2;SDS_P1;SDS_P2;PMS_P1;PMS_P2;Temp;Humidity;BMP_temperature;BMP_pressure;BME280_temperature;BME280_humidity;BME280_pressure;Samples;Min_cycle;Max_cycle;Signal;HPM_P1;HPM_P2
2022/07/19 00:01:32;;;;;;;4.82;3.17;;;;;;;27.05;38.71;101731.00;5103766;28;20067;-66
2022/07/19 00:04:02;;;;;;;10.18;2.72;;;;;;;27.02;38.36;101731.63;5103317;28;20060;-67
2022/07/19 00:06:30;;;;;;;5.05;2.63;;;;;;;27.00;38.42;101728.34;5101185;28;20072;-67
2022/07/19 00:08:58;;;;;;;5.00;3.10;;;;;;;26.94;38.41;101718.53;5108311;28;20044;-67
2022/07/19 00:11:27;;;;;;;4.13;2.65;;;;;;;26.94;38.51;101721.28;5106779;28;20061;-67
2022/07/19 00:13:55;;;;;;;4.95;2.90;;;;;;;26.90;38.65;101715.56;5102612;28;20067;-67
2022/07/19 00:16:23;;;;;;;4.85;3.05;;;;;;;26.88;38.52;101712.31;5106036;28;20076;-67
2022/07/19 00:18:52;;;;;;;7.57;3.55;;;;;;;26.84;38.83;101720.38;5114040;28;20179;-67
2022/07/19 00:21:21;;;;;;;5.40;3.03;;;;;;;26.81;38.60;101717.44;5108895;28;20280;-66
2022/07/19 00:23:48;;;;;;;5.82;2.67;;;;;;;26.78;38.79;101709.78;5100739;28;20055;-66
2022/07/19 00:26:16;;;;;;;6.80;2.72;;;;;;;26.76;38.79;101710.09;5107487;28;20094;-67
2022/07/19 00:28:44;;;;;;;4.25;2.75;;;;;;;26.73;38.70;101707.94;5108771;28;20060;-67
2022/07/19 00:31:12;;;;;;;6.65;3.05;;;;;;;26.69;38.70;101708.88;5108511;28;20105;-67
2022/07/19 00:33:40;;;;;;;6.65;3.30;;;;;;;26.68;38.77;101707.25;5104650;28;20058;-67
2022/07/19 00:36:07;;;;;;;7.35;3.25;;;;;;;26.65;39.01;101703.16;5111031;28;20070;-67
2022/07/19 00:38:37;;;;;;;5.57;3.15;;;;;;;26.62;38.94;101698.28;5116067;28;20051;-67
2022/07/19 00:41:05;;;;;;;4.93;2.72;;;;;;;26.59;38.83;101705.22;5107981;28;20083;-67
2022/07/19 00:43:32;;;;;;;5.95;2.90;;;;;;;26.56;38.75;101705.84;5100766;28;20079;-67
2022/07/19 00:46:00;;;;;;;4.68;2.75;;;;;;;26.55;38.94;101703.38;5105078;28;20044;-67
2022/07/19 00:48:28;;;;;;;5.55;2.97;;;;;;;26.51;39.04;101703.19;5107208;28;20047;-67
2022/07/19 00:50:56;;;;;;;8.45;3.45;;;;;;;26.48;38.86;101706.56;5116491;28;20047;-67
2022/07/19 00:53:25;;;;;;;5.75;3.03;;;;;;;26.46;38.86;101705.25;5099870;28;20049;-67
2022/07/19 00:55:55;;;;;;;4.55;2.83;;;;;;;26.39;39.03;101696.56;5097097;28;20074;-67
2022/07/19 00:58:24;;;;;;;4.07;2.58;;;;;;;26.42;38.98;101701.47;5113481;28;20512;-67
2022/07/19 01:00:52;;;;;;;5.57;2.55;;;;;;;26.39;38.96;101694.63;5110318;28;20063;-67
2022/07/19 01:03:21;;;;;;;6.13;3.03;;;;;;;26.41;39.10;101699.84;5106945;28;20066;-66
2022/07/19 01:05:49;;;;;;;6.15;2.90;;;;;;;26.40;38.98;101700.97;5104118;28;20044;-66
2022/07/19 01:08:17;;;;;;;4.63;2.90;;;;;;;26.38;39.04;101700.44;5103533;28;20063;-67
2022/07/19 01:10:44;;;;;;;6.00;3.05;;;;;;;26.37;38.84;101699.63;5100857;28;20048;-67
2022/07/19 01:13:14;;;;;;;3.45;2.50;;;;;;;26.35;38.84;101701.88;5098090;28;20048;-67
2022/07/19 01:15:43;;;;;;;5.18;2.97;;;;;;;26.34;38.87;101699.44;5114584;28;20108;-67
2022/07/19 01:18:11;;;;;;;4.07;2.42;;;;;;;26.31;38.90;101697.25;5118229;28;20052;-67
2022/07/19 01:20:39;;;;;;;4.80;2.58;;;;;;;26.29;38.94;101692.06;5111596;28;20043;-67
2022/07/19 01:23:08;;;;;;;4.85;2.58;;;;;;;26.27;38.92;101697.06;5099900;28;20078;-67
2022/07/19 01:25:37;;;;;;;4.63;2.95;;;;;;;26.26;38.79;101703.69;5119027;28;20100;-67
2022/07/19 01:28:07;;;;;;;4.18;2.47;;;;;;;26.24;39.01;101705.94;5108599;28;20501;-67
2022/07/19 01:30:35;;;;;;;5.80;2.60;;;;;;;26.22;38.90;101697.16;5103289;28;20048;-67
2022/07/19 01:33:04;;;;;;;5.25;2.70;;;;;;;26.20;38.94;101694.72;5107919;28;20048;-67
2022/07/19 01:35:32;;;;;;;4.05;2.80;;;;;;;26.16;39.03;101690.13;5106416;28;20059;-67
2022/07/19 01:38:00;;;;;;;5.22;2.75;;;;;;;26.09;39.10;101681.44;5109377;28;20127;-67
2022/07/19 01:40:29;;;;;;;4.47;2.65;;;;;;;26.14;38.97;101692.34;5108673;28;20048;-67
2022/07/19 01:42:57;;;;;;;3.97;2.78;;;;;;;26.12;39.03;101703.69;5096166;28;20048;-67
2022/07/19 01:45:24;;;;;;;3.55;2.45;;;;;;;26.09;39.01;101695.22;5105761;28;20044;-67
2022/07/19 01:47:52;;;;;;;4.40;2.83;;;;;;;26.08;39.10;101691.66;5112527;28;20051;-67
2022/07/19 01:50:20;;;;;;;4.15;2.78;;;;;;;26.05;38.96;101688.69;5111990;28;20052;-67
2022/07/19 01:52:48;;;;;;;7.13;3.17;;;;;;;26.02;39.05;101689.28;5108950;28;20143;-67
2022/07/19 01:55:18;;;;;;;7.20;2.75;;;;;;;25.99;39.01;101682.50;5091085;28;20067;-67
2022/07/19 01:57:48;;;;;;;4.75;2.50;;;;;;;25.96;39.15;101688.59;5106603;28;20043;-67
2022/07/19 02:00:16;;;;;;;4.43;2.70;;;;;;;25.92;39.11;101691.16;5094056;28;20055;-67
2022/07/19 02:02:44;;;;;;;6.05;2.50;;;;;;;25.88;39.15;101681.88;5106200;28;20444;-67
2022/07/19 02:05:12;;;;;;;4.75;2.65;;;;;;;25.87;39.38;101685.75;5102883;28;20036;-67
2022/07/19 02:07:41;;;;;;;4.55;2.60;;;;;;;25.83;39.17;101684.72;5103319;28;20113;-67
2022/07/19 02:10:10;;;;;;;4.80;3.00;;;;;;;25.74;39.12;101670.03;5107391;28;20115;-67
2022/07/19 02:12:39;;;;;;;6.93;2.70;;;;;;;25.79;39.27;101680.13;5101380;28;20127;-67
2022/07/19 02:15:09;;;;;;;4.15;2.55;;;;;;;25.76;39.29;101677.97;5100670;28;20048;-67
2022/07/19 02:17:37;;;;;;;5.75;2.63;;;;;;;25.70;39.23;101679.19;5110812;28;20096;-67
2022/07/19 02:20:06;;;;;;;6.22;2.58;;;;;;;25.72;39.49;101685.22;5103727;28;20073;-67
2022/07/19 02:22:34;;;;;;;5.88;2.75;;;;;;;25.69;39.37;101680.31;5104137;28;20048;-67
2022/07/19 02:25:02;;;;;;;7.05;2.70;;;;;;;25.66;39.61;101684.47;5104806;28;20524;-67
2022/07/19 02:27:30;;;;;;;4.07;2.75;;;;;;;25.64;39.29;101675.69;5111294;28;20528;-66
2022/07/19 02:29:58;;;;;;;6.40;2.65;;;;;;;25.60;39.52;101669.97;5106436;28;20057;-66
2022/07/19 02:32:27;;;;;;;5.28;3.28;;;;;;;25.58;39.58;101674.13;5105584;28;20975;-66
2022/07/19 02:34:55;;;;;;;5.30;2.55;;;;;;;25.55;39.49;101667.31;5106627;28;20052;-66
2022/07/19 02:37:23;;;;;;;5.78;2.45;;;;;;;25.54;39.60;101667.59;5106155;28;20096;-67
2022/07/19 02:39:50;;;;;;;5.07;2.80;;;;;;;25.51;39.73;101669.03;5098817;28;20044;-66
2022/07/19 02:42:18;;;;;;;6.97;2.85;;;;;;;25.48;39.63;101666.06;5101711;28;20075;-66
2022/07/19 02:44:46;;;;;;;5.45;2.70;;;;;;;25.47;39.52;101672.69;5098322;28;20520;-66
2022/07/19 02:47:14;;;;;;;5.60;3.05;;;;;;;25.45;39.76;101670.22;5105383;28;20044;-66
2022/07/19 02:49:43;;;;;;;4.88;2.80;;;;;;;25.43;39.84;101663.41;5095486;28;20105;-67
2022/07/19 02:52:11;;;;;;;8.52;3.28;;;;;;;25.43;39.98;101663.41;5101643;28;20056;-67
2022/07/19 02:54:39;;;;;;;3.75;2.38;;;;;;;25.41;39.54;101658.19;5100437;28;20043;-67
2022/07/19 02:57:07;;;;;;;5.30;2.53;;;;;;;25.41;39.85;101658.19;5093762;28;20040;-67
2022/07/19 02:59:35;;;;;;;5.70;2.63;;;;;;;25.40;39.92;101659.31;5098143;28;20040;-67
2022/07/19 03:02:03;;;;;;;4.30;2.58;;;;;;;25.38;39.68;101664.31;5101933;28;20056;-67
2022/07/19 03:04:30;;;;;;;4.80;2.78;;;;;;;25.37;39.86;101656.34;5105474;28;20073;-66
2022/07/19 03:07:00;;;;;;;4.53;2.83;;;;;;;25.35;39.85;101656.66;5106269;28;20103;-66
2022/07/19 03:09:27;;;;;;;5.18;2.80;;;;;;;25.33;39.79;101663.56;5097501;28;20078;-67
2022/07/19 03:11:56;;;;;;;5.20;2.70;;;;;;;25.33;39.96;101660.81;5105864;28;20043;-67
2022/07/19 03:14:24;;;;;;;4.75;2.90;;;;;;;25.30;40.00;101663.06;5104368;28;20047;-66
2022/07/19 03:16:51;;;;;;;6.28;2.75;;;;;;;25.26;39.82;101651.00;5115088;28;20046;-67
2022/07/19 03:19:19;;;;;;;8.35;3.13;;;;;;;25.24;39.85;101653.25;5105026;28;20044;-67
2022/07/19 03:21:47;;;;;;;4.20;2.75;;;;;;;25.23;40.13;101648.06;5103368;28;20048;-66
2022/07/19 03:24:16;;;;;;;5.10;3.00;;;;;;;25.23;40.07;101650.81;5107091;28;20048;-66
2022/07/19 03:26:44;;;;;;;5.75;2.85;;;;;;;25.20;40.14;101638.47;5107585;28;20063;-66
2022/07/19 03:29:12;;;;;;;4.93;2.72;;;;;;;25.19;40.14;101641.50;5103005;28;20519;-67
2022/07/19 03:31:39;;;;;;;5.18;3.00;;;;;;;25.18;40.18;101646.19;5100548;28;20048;-67
2022/07/19 03:34:07;;;;;;;7.50;3.17;;;;;;;25.15;40.37;101645.97;5107283;28;20059;-66
2022/07/19 03:36:35;;;;;;;9.23;4.25;;;;;;;25.14;40.39;101649.84;5108965;28;20047;-66
2022/07/19 03:39:03;;;;;;;4.57;2.58;;;;;;;25.12;40.56;101649.34;5105772;28;20052;-65
2022/07/19 03:41:32;;;;;;;5.63;3.42;;;;;;;25.10;40.13;101643.31;5104203;28;20200;-65
2022/07/19 03:44:01;;;;;;;8.52;3.00;;;;;;;25.05;40.46;101638.72;5096122;28;20116;-66
2022/07/19 03:46:29;;;;;;;5.03;3.22;;;;;;;25.03;40.58;101646.44;5109116;28;20048;-66
2022/07/19 03:48:57;;;;;;;6.30;3.08;;;;;;;25.01;40.81;101642.38;5103546;28;20043;-67
2022/07/19 03:51:25;;;;;;;4.45;2.80;;;;;;;24.96;40.60;101644.09;5101569;28;20036;-66
2022/07/19 03:53:53;;;;;;;5.68;3.20;;;;;;;24.94;40.52;101645.47;5106134;28;20063;-67
2022/07/19 03:56:21;;;;;;;10.40;3.35;;;;;;;24.91;40.70;101643.31;5108048;28;20055;-66
2022/07/19 03:58:50;;;;;;;4.55;2.55;;;;;;;24.88;40.89;101647.47;5109885;28;20055;-66
2022/07/19 04:01:18;;;;;;;7.70;3.40;;;;;;;24.86;40.82;101644.22;5108817;28;20043;-66
2022/07/19 04:03:50;;;;;;;4.95;3.05;;;;;;;24.84;41.18;101637.38;5110600;28;20108;-67
2022/07/19 04:06:18;;;;;;;4.18;2.67;;;;;;;24.82;40.94;101645.91;5107754;28;20052;-67
2022/07/19 04:08:46;;;;;;;5.55;3.15;;;;;;;24.80;41.08;101639.09;5107119;28;20043;-66
2022/07/19 04:11:14;;;;;;;6.40;3.08;;;;;;;24.78;41.29;101644.06;5122230;28;20043;-66
2022/07/19 04:13:42;;;;;;;4.75;2.92;;;;;;;24.75;41.27;101637.22;5105926;28;20093;-66
2022/07/19 04:16:11;;;;;;;4.40;3.30;;;;;;;24.74;41.25;101638.34;5113445;28;20067;-66
2022/07/19 04:18:39;;;;;;;4.32;3.10;;;;;;;24.72;41.40;101637.81;5111017;28;20083;-66
2022/07/19 04:21:07;;;;;;;9.15;3.15;;;;;;;24.70;40.90;101637.31;5103456;28;20123;-66
2022/07/19 04:23:35;;;;;;;6.45;3.40;;;;;;;24.69;40.87;101632.09;5099090;28;20048;-66
2022/07/19 04:26:04;;;;;;;4.32;3.30;;;;;;;24.66;40.96;101636.25;5108807;28;20078;-66
2022/07/19 04:28:31;;;;;;;5.70;3.50;;;;;;;24.65;41.35;101649.19;5110136;28;20051;-66
2022/07/19 04:30:59;;;;;;;6.75;3.40;;;;;;;24.62;41.22;101638.78;5105106;28;20063;-66
2022/07/19 04:33:28;;;;;;;6.78;3.50;;;;;;;24.62;41.18;101640.72;5106242;28;20040;-67
2022/07/19 04:35:56;;;;;;;5.05;2.90;;;;;;;24.59;41.22;101639.38;5107085;28;20044;-66
2022/07/19 04:38:24;;;;;;;6.50;3.10;;;;;;;24.59;41.20;101642.13;5105292;28;20044;-67
2022/07/19 04:40:52;;;;;;;5.80;3.13;;;;;;;24.57;41.28;101647.09;5103411;28;20063;-66
2022/07/19 04:47:07;;;;;;;7.65;3.10;;;;;;;24.54;41.21;101636.69;5090545;28;20054;-67
2022/07/19 04:49:37;;;;;;;6.32;3.22;;;;;;;24.53;41.47;101646.06;5093778;28;20105;-67
2022/07/19 04:52:05;;;;;;;4.70;2.72;;;;;;;24.51;41.42;101639.22;5099912;28;20054;-67
2022/07/19 04:54:33;;;;;;;6.05;3.13;;;;;;;24.50;41.17;101638.41;5101365;28;20044;-66
2022/07/19 04:57:01;;;;;;;6.70;3.42;;;;;;;24.50;41.25;101643.09;5098905;28;20040;-66
2022/07/19 04:59:29;;;;;;;8.77;3.60;;;;;;;24.48;41.05;101646.13;5104139;28;20063;-66
2022/07/19 05:01:57;;;;;;;5.00;3.00;;;;;;;24.47;41.17;101647.25;5101989;28;20059;-68
2022/07/19 05:04:25;;;;;;;8.05;3.35;;;;;;;24.46;41.38;101642.88;5109014;28;20060;-69
2022/07/19 05:06:56;;;;;;;7.50;3.50;;;;;;;24.42;41.30;101641.00;5103454;28;20060;-67
2022/07/19 05:09:24;;;;;;;6.13;3.40;;;;;;;24.45;41.44;101643.16;5112022;28;20062;-67
2022/07/19 05:11:53;;;;;;;4.47;3.30;;;;;;;24.43;41.21;101643.47;5099873;28;20040;-69
2022/07/19 05:14:22;;;;;;;5.47;3.00;;;;;;;24.41;41.53;101642.94;5099572;28;20048;-70
2022/07/19 05:16:50;;;;;;;9.63;3.08;;;;;;;24.41;41.35;101642.13;5100067;28;20109;-67
2022/07/19 05:19:19;;;;;;;13.90;4.03;;;;;;;24.40;41.69;101649.53;5101345;28;20075;-70
2022/07/19 05:21:47;;;;;;;5.95;3.08;;;;;;;24.39;41.46;101645.16;5108659;28;20043;-69
2022/07/19 05:24:16;;;;;;;6.38;3.17;;;;;;;24.38;41.24;101642.72;5101709;28;20070;-70
2022/07/19 05:26:44;;;;;;;10.30;3.63;;;;;;;24.37;41.16;101644.63;5114710;28;20108;-64
2022/07/19 05:29:12;;;;;;;4.85;3.10;;;;;;;24.36;41.71;101643.00;5116857;28;20055;-67
2022/07/19 05:31:40;;;;;;;7.60;3.35;;;;;;;24.36;41.56;101655.91;5103746;28;20047;-65
2022/07/19 05:34:08;;;;;;;4.63;3.00;;;;;;;24.22;41.53;101633.84;5116491;28;20051;-67
2022/07/19 05:36:36;;;;;;;4.97;2.90;;;;;;;24.32;41.79;101656.50;5107051;28;20061;-66
2022/07/19 05:39:04;;;;;;;4.93;3.10;;;;;;;24.30;41.30;101657.91;5107811;28;20040;-67
2022/07/19 05:41:33;;;;;;;8.75;3.25;;;;;;;24.27;41.37;101650.25;5107304;28;20428;-68
2022/07/19 05:44:01;;;;;;;5.72;3.55;;;;;;;24.21;41.69;101648.69;4755542;28;10000027;-68
2022/07/19 05:46:29;;;;;;;4.38;2.92;;;;;;;24.27;41.47;101658.50;5092490;28;20105;-67
2022/07/19 05:48:57;;;;;;;6.00;3.30;;;;;;;24.23;41.58;101650.03;5099547;28;20055;-68
2022/07/19 05:51:25;;;;;;;6.05;2.97;;;;;;;24.24;41.77;101659.09;5104976;28;20051;-67
2022/07/19 05:53:53;;;;;;;8.52;3.78;;;;;;;24.22;41.70;101661.31;5103326;28;20073;-67
2022/07/19 05:56:21;;;;;;;7.03;3.03;;;;;;;24.20;41.68;101664.34;5104711;28;20043;-66
2022/07/19 05:58:50;;;;;;;4.72;3.05;;;;;;;24.21;41.58;101662.41;5099155;28;20099;-66
2022/07/19 06:01:22;;;;;;;6.47;3.20;;;;;;;24.19;41.63;101659.16;5098502;28;20048;-66
2022/07/19 06:03:52;;;;;;;4.03;2.92;;;;;;;24.19;41.35;101659.16;5097611;28;20093;-66
2022/07/19 06:06:27;;;;;;;6.32;2.95;;;;;;;24.14;41.70;101654.53;5095516;28;20269;-67
2022/07/19 06:08:55;;;;;;;6.65;3.15;;;;;;;24.18;41.67;101655.59;5094879;28;20642;-67
2022/07/19 06:11:24;;;;;;;7.05;3.10;;;;;;;24.15;41.31;101656.19;5096890;28;20101;-67
2022/07/19 06:13:53;;;;;;;6.85;4.03;;;;;;;24.16;41.23;101657.81;5097292;28;20089;-65
2022/07/19 06:16:22;;;;;;;7.93;3.28;;;;;;;24.15;41.73;101649.88;5095389;28;20044;-66
2022/07/19 06:18:50;;;;;;;7.85;3.45;;;;;;;24.17;41.84;101653.13;5101813;28;20607;-68
2022/07/19 06:21:20;;;;;;;9.88;4.20;;;;;;;24.07;41.64;101636.78;5100845;28;20048;-68
2022/07/19 06:23:48;;;;;;;6.22;3.60;;;;;;;24.14;41.58;101654.53;5096162;28;20048;-68
2022/07/19 06:26:16;;;;;;;7.32;3.58;;;;;;;24.14;41.76;101657.28;5105080;28;20114;-68
2022/07/19 06:28:44;;;;;;;5.75;3.55;;;;;;;24.15;41.56;101656.19;5101759;28;20283;-68
2022/07/19 06:31:14;;;;;;;4.90;3.25;;;;;;;24.16;41.41;101665.22;5100140;28;20052;-68
2022/07/19 06:33:43;;;;;;;5.55;3.08;;;;;;;24.16;41.74;101660.56;5104457;28;20120;-68
2022/07/19 06:36:11;;;;;;;6.65;3.70;;;;;;;24.17;41.66;101655.88;5102087;28;20055;-68
2022/07/19 06:38:41;;;;;;;6.03;3.35;;;;;;;24.16;41.35;101657.00;5102865;28;20064;-68
2022/07/19 06:41:08;;;;;;;8.18;3.28;;;;;;;24.16;41.42;101652.31;5099649;28;20056;-68
2022/07/19 06:43:36;;;;;;;5.55;3.40;;;;;;;24.16;41.28;101657.00;5103198;28;20056;-68
2022/07/19 06:46:04;;;;;;;7.65;3.10;;;;;;;24.18;41.50;101654.78;5103598;28;20044;-68
2022/07/19 06:48:34;;;;;;;6.70;3.60;;;;;;;24.18;41.68;101657.50;5096201;28;20048;-67
2022/07/19 06:51:02;;;;;;;7.32;3.35;;;;;;;24.20;41.37;101655.28;5098459;28;20048;-67
2022/07/19 06:53:30;;;;;;;3.88;2.53;;;;;;;24.19;41.71;101662.72;5103548;28;20081;-67
2022/07/19 06:55:57;;;;;;;4.95;3.15;;;;;;;24.20;41.27;101655.28;5098673;28;20047;-67
2022/07/19 06:58:25;;;;;;;7.25;3.55;;;;;;;24.21;41.38;101655.00;5102518;28;20092;-67
2022/07/19 07:00:53;;;;;;;13.65;3.70;;;;;;;24.23;41.70;101657.47;5102326;28;20052;-67
2022/07/19 07:03:21;;;;;;;5.85;2.92;;;;;;;24.22;41.53;101656.63;5103898;28;20131;-67
2022/07/19 07:05:50;;;;;;;7.80;2.97;;;;;;;24.23;41.33;101655.53;5103761;28;20168;-67
2022/07/19 07:08:18;;;;;;;5.53;3.42;;;;;;;24.22;41.17;101651.16;5105280;28;20075;-67
2022/07/19 07:10:46;;;;;;;5.13;2.60;;;;;;;24.26;41.80;101654.16;5096714;28;20044;-67
2022/07/19 07:13:14;;;;;;;6.00;2.85;;;;;;;24.27;41.41;101655.75;5117853;28;20054;-67
2022/07/19 07:15:43;;;;;;;6.43;3.20;;;;;;;24.28;41.75;101655.47;5105141;28;20075;-67
2022/07/19 07:18:11;;;;;;;5.78;3.13;;;;;;;24.28;41.63;101652.72;5096430;28;20114;-67
2022/07/19 07:20:39;;;;;;;5.05;2.97;;;;;;;24.27;41.86;101655.75;5103181;28;20369;-67
2022/07/19 07:23:09;;;;;;;4.93;3.20;;;;;;;24.30;41.76;101655.16;5106184;28;20147;-67
2022/07/19 07:25:37;;;;;;;11.00;3.63;;;;;;;24.31;41.84;101649.38;5111422;28;20067;-67
2022/07/19 07:28:05;;;;;;;5.68;2.70;;;;;;;24.24;41.94;101643.44;5107399;28;20464;-67
2022/07/19 07:30:33;;;;;;;4.90;2.83;;;;;;;24.34;42.40;101650.72;5124423;28;20044;-66
2022/07/19 07:33:01;;;;;;;9.77;2.80;;;;;;;24.36;42.35;101644.94;5103277;28;20051;-67
2022/07/19 07:35:29;;;;;;;7.65;3.45;;;;;;;24.37;42.50;101638.31;5112451;28;20048;-67
2022/07/19 07:37:57;;;;;;;6.93;3.55;;;;;;;24.39;42.43;101644.34;5109827;28;20073;-67
2022/07/19 07:40:26;;;;;;;6.50;3.47;;;;;;;24.30;42.35;101625.75;5102816;28;20049;-67
2022/07/19 07:42:54;;;;;;;6.10;3.10;;;;;;;24.40;42.19;101638.56;5100332;28;20063;-67
2022/07/19 07:45:22;;;;;;;8.70;3.20;;;;;;;24.43;42.64;101639.88;5116919;28;20460;-67
2022/07/19 07:47:50;;;;;;;8.75;2.80;;;;;;;24.44;42.35;101636.84;5097864;28;20048;-67
2022/07/19 07:50:18;;;;;;;5.65;3.30;;;;;;;24.47;42.62;101640.94;5097717;28;20047;-67
2022/07/19 07:52:45;;;;;;;8.10;3.33;;;;;;;24.47;43.02;101633.50;5106492;28;20044;-67
2022/07/19 07:55:13;;;;;;;10.90;3.28;;;;;;;24.50;42.46;101634.84;5108059;28;20073;-67
2022/07/19 07:57:56;;;;;;;8.27;2.50;;;;;;;24.50;42.91;101621.91;5100354;28;20051;-67
2022/07/19 08:00:24;;;;;;;8.85;2.67;;;;;;;24.52;42.99;101633.44;5114572;28;20192;-67
2022/07/19 08:02:52;;;;;;;5.60;3.33;;;;;;;24.54;43.11;101631.22;5118094;28;20078;-67
2022/07/19 08:05:22;;;;;;;6.03;3.45;;;;;;;24.56;43.12;101628.97;5109036;28;20097;-67
2022/07/19 08:07:50;;;;;;;5.50;2.75;;;;;;;24.57;43.03;101616.88;5104073;28;20044;-67
2022/07/19 08:10:21;;;;;;;7.70;3.53;;;;;;;24.60;42.92;101618.22;5103468;28;20484;-67
2022/07/19 08:12:49;;;;;;;4.95;2.80;;;;;;;24.62;43.04;101614.03;5092553;28;20060;-67
2022/07/19 08:15:19;;;;;;;4.30;2.70;;;;;;;24.65;42.84;101610.69;5105502;28;20048;-66
2022/07/19 08:17:46;;;;;;;10.48;3.00;;;;;;;24.66;43.10;101611.53;5118545;28;20143;-67
2022/07/19 08:20:15;;;;;;;5.35;2.92;;;;;;;24.70;42.81;101606.25;5104969;28;20047;-67
2022/07/19 08:22:44;;;;;;;5.72;2.95;;;;;;;24.74;43.20;101610.03;5117871;28;20043;-68
2022/07/19 08:25:14;;;;;;;7.43;2.85;;;;;;;24.75;43.16;101609.72;5113007;28;20051;-67
2022/07/19 08:27:42;;;;;;;5.65;2.78;;;;;;;24.78;43.14;101619.31;5101023;28;20048;-67
2022/07/19 08:30:11;;;;;;;7.30;2.72;;;;;;;24.80;43.41;101617.91;5115222;28;20150;-67
2022/07/19 08:32:40;;;;;;;5.22;2.45;;;;;;;24.83;43.32;101617.31;5127215;28;20043;-67
2022/07/19 08:35:09;;;;;;;4.43;2.30;;;;;;;24.81;43.42;101603.03;5118087;28;20055;-67
2022/07/19 08:37:37;;;;;;;5.53;3.25;;;;;;;24.88;43.33;101605.41;5104973;28;20047;-66
2022/07/19 08:40:07;;;;;;;6.07;2.55;;;;;;;24.91;43.66;101613.88;5111561;28;20044;-66
2022/07/19 08:42:35;;;;;;;5.63;2.50;;;;;;;24.94;43.41;101607.78;5114244;28;20488;-67
2022/07/19 08:45:06;;;;;;;6.15;2.97;;;;;;;24.97;43.51;101598.13;5123481;28;20501;-67
2022/07/19 08:47:35;;;;;;;3.95;2.55;;;;;;;24.98;43.47;101595.09;5104921;28;20051;-67
2022/07/19 08:50:07;;;;;;;6.32;2.85;;;;;;;25.03;43.31;101601.63;5112215;28;20047;-65
2022/07/19 08:52:35;;;;;;;4.53;3.33;;;;;;;25.04;43.54;101597.75;5126844;28;20043;-67
2022/07/19 08:55:04;;;;;;;4.70;2.70;;;;;;;25.06;43.74;101596.34;5126414;28;20059;-67
2022/07/19 09:00:17;;;;;;;7.28;2.70;;;;;;;25.10;43.58;101594.63;5100970;28;20047;-66
2022/07/19 09:02:54;;;;;;;4.07;2.60;;;;;;;25.16;43.83;101595.34;5110951;28;20528;-67
2022/07/19 09:05:23;;;;;;;;;;;;;;;25.18;43.81;101587.59;5127384;28;20131;-67
2022/07/19 09:08:07;;;;;;;4.57;2.55;;;;;;;25.22;43.75;101592.22;5110699;28;19919;-67
2022/07/19 09:10:38;;;;;;;6.65;2.53;;;;;;;25.27;43.56;101594.06;5124830;28;20047;-68
2022/07/19 09:13:09;;;;;;;6.03;2.80;;;;;;;25.30;43.55;101587.94;5090231;28;20048;-65
2022/07/19 09:15:47;;;;;;;5.90;3.03;;;;;;;25.34;43.65;101594.47;5121138;28;20047;-67
2022/07/19 09:18:18;;;;;;;4.78;2.83;;;;;;;25.38;43.49;101594.69;5105867;28;20056;-66
2022/07/19 09:20:50;;;;;;;4.68;2.60;;;;;;;25.40;43.40;101587.75;5110144;28;20044;-67
2022/07/19 09:23:18;;;;;;;4.72;2.70;;;;;;;25.44;43.44;101591.53;5116525;28;20044;-67
2022/07/19 09:25:49;;;;;;;5.57;2.38;;;;;;;25.47;43.12;101584.59;5125217;28;20043;-66
2022/07/19 09:28:18;;;;;;;7.05;2.67;;;;;;;25.50;43.38;101584.00;5109336;28;20048;-67
2022/07/19 09:30:48;;;;;;;4.50;2.53;;;;;;;25.53;43.44;101577.88;5104551;28;20048;-67
2022/07/19 09:33:18;;;;;;;6.03;2.88;;;;;;;25.57;43.22;101582.47;5125430;28;20097;-67
2022/07/19 09:35:49;;;;;;;4.22;2.33;;;;;;;25.61;43.31;101580.75;5126522;28;20044;-67
2022/07/19 09:38:26;;;;;;;3.90;2.40;;;;;;;25.66;43.29;101579.84;5096239;28;20071;-67
2022/07/19 09:40:55;;;;;;;3.88;2.40;;;;;;;25.71;43.03;101578.94;5108131;28;20051;-67
2022/07/19 09:43:25;;;;;;;3.70;2.00;;;;;;;25.75;42.95;101572.50;5104150;28;20048;-67
2022/07/19 09:46:28;;;;;;;5.88;2.60;;;;;;;25.81;42.95;101564.97;5103870;28;20119;-67
2022/07/19 09:49:08;;;;;;;5.30;2.70;;;;;;;25.85;42.89;101575.06;5110780;28;20073;-67
2022/07/19 09:51:39;;;;;;;4.55;2.60;;;;;;;25.89;42.77;101569.75;5098327;28;20048;-68
2022/07/19 09:54:10;;;;;;;3.05;2.03;;;;;;;25.93;42.90;101568.03;5125592;28;20485;-68
2022/07/19 09:56:40;;;;;;;3.65;2.33;;;;;;;25.66;42.94;101516.53;5108099;28;20089;-68
2022/07/19 09:59:08;;;;;;;2.58;1.95;;;;;;;26.03;42.77;101566.97;5113473;28;20059;-68
2022/07/19 10:01:37;;;;;;;7.07;2.55;;;;;;;26.08;42.82;101564.09;5116034;28;20040;-68
2022/07/19 10:04:08;;;;;;;4.40;2.83;;;;;;;26.13;42.68;101558.47;5114074;28;20059;-68
2022/07/19 10:06:38;;;;;;;6.22;2.40;;;;;;;26.19;42.49;101560.00;5107669;28;20050;-67
2022/07/19 10:09:08;;;;;;;7.32;2.30;;;;;;;26.24;42.51;101557.94;5103773;28;20445;-67
2022/07/19 10:11:37;;;;;;;6.65;2.40;;;;;;;26.29;42.46;101557.00;5101895;28;20052;-68
2022/07/19 10:14:05;;;;;;;7.55;2.55;;;;;;;26.35;42.11;101550.28;5110718;28;20109;-67
2022/07/19 10:16:46;;;;;;;3.70;2.13;;;;;;;26.42;42.65;101547.91;5125389;28;20069;-67
2022/07/19 10:19:19;;;;;;;4.35;2.90;;;;;;;26.48;42.43;101540.34;5110977;28;20044;-68
2022/07/19 10:21:49;;;;;;;4.55;2.35;;;;;;;26.55;42.41;101551.75;5098318;28;20066;-68
2022/07/19 10:24:48;;;;;;;4.32;2.35;;;;;;;26.63;42.45;101539.97;5119462;28;20051;-67
2022/07/19 10:27:18;;;;;;;5.53;2.78;;;;;;;26.69;42.27;101546.16;5117282;28;20070;-67
2022/07/19 10:29:46;;;;;;;6.10;2.70;;;;;;;26.64;42.31;101525.06;5108147;28;20052;-68
2022/07/19 10:32:15;;;;;;;4.93;2.60;;;;;;;26.77;42.45;101532.44;5099365;28;20062;-68
2022/07/19 10:34:46;;;;;;;4.63;2.15;;;;;;;26.88;42.43;101533.00;5090333;28;20070;-68
2022/07/19 10:37:41;;;;;;;3.97;2.38;;;;;;;26.95;42.06;101530.59;5107754;28;20052;-68
2022/07/19 10:40:09;;;;;;;5.78;2.50;;;;;;;27.04;41.63;101525.16;5107985;28;20050;-68
2022/07/19 10:43:16;;;;;;;4.53;2.20;;;;;;;27.05;41.42;101518.53;5115688;28;20066;-70
2022/07/19 10:46:11;;;;;;;;;;;;;;;27.19;41.86;101520.06;5098573;28;20040;-68
2022/07/19 10:48:40;;;;;;;5.05;2.45;;;;;;;27.22;41.44;101513.09;5086191;28;19919;-67
2022/07/19 10:51:12;;;;;;;3.28;2.55;;;;;;;27.33;41.75;101511.69;5094533;28;20062;-68
2022/07/19 10:54:05;;;;;;;3.58;2.20;;;;;;;27.43;41.71;101516.09;5097262;28;20041;-68
2022/07/19 10:56:59;;;;;;;11.05;2.70;;;;;;;27.53;41.64;101513.03;5117382;28;20078;-68
2022/07/19 10:59:32;;;;;;;7.63;2.90;;;;;;;27.62;41.42;101508.41;5087469;28;20133;-68
2022/07/19 11:02:02;;;;;;;5.85;2.42;;;;;;;27.70;41.50;101506.78;5111300;28;20489;-68
2022/07/19 11:04:50;;;;;;;4.13;2.20;;;;;;;27.74;41.42;101503.03;5106084;28;20062;-68
2022/07/19 11:07:21;;;;;;;8.02;2.53;;;;;;;27.87;41.42;101506.78;5108016;28;20052;-68
2022/07/19 11:09:53;;;;;;;4.35;2.20;;;;;;;27.96;40.84;101507.63;5101820;28;20040;-68
2022/07/19 11:12:24;;;;;;;3.70;2.17;;;;;;;28.04;40.38;101504.06;5092543;28;20151;-68
2022/07/19 11:14:52;;;;;;;2.97;2.25;;;;;;;28.11;40.36;101495.28;5108707;28;20118;-68
2022/07/19 11:17:39;;;;;;;5.97;2.10;;;;;;;28.17;40.95;101494.78;5107981;28;20136;-70
2022/07/19 11:20:10;;;;;;;3.25;2.17;;;;;;;28.25;40.68;101486.84;5104785;28;20074;-68
2022/07/19 11:22:41;;;;;;;3.95;2.42;;;;;;;28.27;40.57;101473.53;5117673;28;20087;-69
2022/07/19 11:25:12;;;;;;;3.58;2.05;;;;;;;28.37;40.44;101479.53;5107181;28;20048;-68
2022/07/19 11:27:42;;;;;;;4.75;2.10;;;;;;;28.39;40.47;101466.19;5108657;28;20507;-69
2022/07/19 11:30:13;;;;;;;4.75;2.10;;;;;;;28.52;40.16;101472.69;5099969;28;20079;-68
2022/07/19 11:32:42;;;;;;;6.43;2.42;;;;;;;28.59;40.28;101461.94;5099204;28;20048;-68
2022/07/19 11:35:14;;;;;;;3.97;2.38;;;;;;;28.65;40.76;101466.16;5110228;28;20074;-67
2022/07/19 11:37:43;;;;;;;8.00;2.20;;;;;;;28.72;39.62;101468.41;5102772;28;20074;-68
2022/07/19 11:40:13;;;;;;;5.60;2.05;;;;;;;28.78;39.99;101458.78;5101023;28;20519;-68
2022/07/19 11:42:43;;;;;;;4.80;2.20;;;;;;;28.83;39.75;101461.41;5105951;28;20068;-68